Latest Coastal Weather Observations for Gabo Island (VIC)

IDN60701

Issued at 4:11 pm EST Tuesday 4 August 2020 (issued every 10 minutes, with the page automatically refreshed every 10 minutes)

About coastal observations | Map of coastal stations | Coastal observations for NSW | Marine services | Other Formats
Station Details ID: 084016 Name: GABO ISLAND LIGHTHOUSE Lat: -37.57 Lon: 149.92 Height: 15.0 m
Data from the previous 72 hours. | See also: Recent months at Gabo Island (VIC)
Date/Time
EST
Wind Sea
Height
m
Swell Vis
km
Cloud Weather Temp
°C
Press
hPa
Rain since
9am
mm
Dir  Spd
kts
Gust
kts
Height
m
Period
s
Dir
04/04:00pm SW 26 34 - - - - - - - 9.9 1008.6 0.0
04/03:30pm SW 24 30 - - - - - - - 9.7 1008.4 0.0
04/03:00pm SW 21 24 2 1.3 9 S 35 Mostly clear Fine 9.9 1008.1 0.0
04/02:30pm SW 23 27 - - - - - - - 9.6 1008.2 0.0
04/02:00pm SW 25 31 - - - - - - - 9.2 1008.0 0.0
04/01:30pm SW 29 35 - - - - - - - 8.9 1008.0 0.0
04/01:00pm SW 27 32 - - - - - - - 9.4 1008.3 0.0
04/12:30pm SW 26 32 - - - - - - - 9.7 1008.4 0.0
04/12:00pm SW 24 31 - - - - - - - 9.2 1008.8 0.0
04/11:55am WSW 21 31 - - - - - - - 9.4 1008.7 0.0
04/11:30am WSW 20 24 - - - - - - - 9.9 1009.0 0.0
04/11:00am WSW 18 22 - - - - - - - 9.4 1009.4 0.0
04/10:30am WSW 20 25 - - - - - - - 9.8 1009.5 0.0
04/10:00am WSW 16 20 - - - - - - - 9.6 1009.6 0.0
04/09:30am WSW 18 23 - - - - - - - 9.6 1009.6 0.0
04/09:00am WSW 19 25 2 1.3 9 E 25 Cloudy Fine 9.6 1009.7 0.0
04/08:30am WSW 17 22 - - - - - - - 10.1 1009.5 0.0
04/08:00am WSW 19 24 - - - - - - - 10.4 1009.2 0.0
04/07:49am WSW 19 30 - - - - - - - 10.6 1009.1 0.0
04/07:45am WSW 16 25 - - - - - - - 10.5 1009.1 0.0
04/07:30am W 12 16 - - - - - - - 10.3 1009.0 0.0
04/07:00am W 14 19 - - - - - - - 10.1 1008.7 0.0
04/06:30am W 14 23 - - - - - - - 10.3 1007.8 0.0
04/06:25am WNW 9 23 - - - - - - - 9.4 1007.7 0.0
04/06:00am NNW 7 11 - - - - - - - 11.1 1007.1 0.0
04/05:30am N 10 13 - - - - - - - 11.7 1007.0 0.0
04/05:00am NNE 9 12 - - - - - - - 11.2 1007.3 0.0
04/04:30am N 9 11 - - - - - - - 11.5 1007.7 0.0
04/04:00am N 9 10 - - - - - - - 11.7 1008.0 0.0
04/03:30am N 7 8 - - - - - - - 10.7 1008.4 0.0
04/03:00am N 6 7 - - - - - - - 10.0 1008.7 0.0
04/02:30am CALM 0 0 - - - - - - - 10.3 1009.2 0.0
04/02:00am W 3 5 - - - - - - - 10.6 1009.5 0.0
04/01:30am WNW 7 9 - - - - - - - 10.8 1009.9 0.0
04/01:00am NW 7 7 - - - - - - - 10.4 1010.2 0.0
04/12:30am W 8 10 - - - - - - - 10.6 1010.7 0.0
04/12:00am W 8 10 - - - - - - - 11.0 1011.1 0.0
 
Date/Time
EST
Wind Sea
Height
m
Swell Vis
km
Cloud Weather Temp
°C
Press
hPa
Rain since
9am
mm
Dir  Spd
kts
Gust
kts
Height
m
Period
s
Dir
03/11:30pm W 10 11 - - - - - - - 11.1 1011.3 0.0
03/11:00pm WNW 7 8 - - - - - - - 11.2 1011.4 0.0
03/10:30pm W 10 11 - - - - - - - 12.0 1011.6 0.0
03/10:00pm W 10 13 - - - - - - - 12.4 1011.8 0.0
03/09:30pm WSW 11 13 - - - - - - - 12.4 1012.0 0.0
03/09:00pm WSW 8 11 1 0.8 10 E 20 Cloudy Fine 12.2 1012.1 0.0
03/08:30pm SSW 1 5 - - - - - - - 12.0 1012.0 0.0
03/08:00pm SSE 2 3 - - - - - - - 12.5 1011.9 0.0
03/07:30pm NE 3 4 - - - - - - - 12.8 1012.0 0.0
03/07:00pm N 3 4 - - - - - - - 13.1 1011.9 0.0
03/06:30pm NE 4 5 - - - - - - - 12.3 1011.8 0.0
03/06:00pm NNE 5 6 - - - - - - - 13.2 1011.9 0.0
03/05:30pm NNE 5 6 - - - - - - - 12.7 1011.8 0.0
03/05:00pm CALM 0 0 - - - - - - - 13.7 1012.1 0.0
03/04:30pm NNE 2 4 - - - - - - - 13.9 1012.2 0.0
03/04:00pm NNE 4 5 - - - - - - - 13.8 1012.4 0.0
03/03:30pm NNE 4 5 - - - - - - - 14.2 1012.5 0.0
03/03:00pm NNE 4 6 1 0.8 10 E 35 Mostly cloudy Fine 14.3 1012.6 0.0
03/02:30pm NE 4 5 - - - - - - - 14.8 1013.0 0.0
03/02:00pm NNE 4 5 - - - - - - - 14.5 1013.1 0.0
03/01:30pm ENE 4 4 - - - - - - - 14.4 1013.4 0.0
03/01:00pm ENE 3 4 - - - - - - - 14.4 1013.8 0.0
03/12:30pm NE 3 4 - - - - - - - 14.3 1014.2 0.0
03/12:00pm NE 4 5 - - - - - - - 14.2 1014.7 0.0
03/11:30am NNE 5 5 - - - - - - - 14.2 1015.3 0.0
03/11:00am NNE 6 6 - - - - - - - 13.7 1015.8 0.0
03/10:30am NNW 4 5 - - - - - - - 14.1 1016.0 0.0
03/10:00am ENE 3 5 - - - - - - - 13.0 1016.2 0.0
03/09:30am SW 5 6 - - - - - - - 11.9 1016.5 0.0
03/09:00am WSW 6 8 1 1.0 10 E 35 Mostly cloudy Fine 11.7 1016.6 0.0
03/08:30am SW 5 6 - - - - - - - 11.2 1016.7 0.0
03/08:00am N 4 5 - - - - - - - 10.3 1016.5 0.0
03/07:30am N 3 5 - - - - - - - 9.3 1016.8 0.0
03/07:00am CALM 0 0 - - - - - - - 8.8 1016.7 0.0
03/06:30am NNE 1 3 - - - - - - - 9.8 1016.7 0.0
03/06:00am CALM 0 0 - - - - - - - 10.8 1016.5 0.0
03/05:30am CALM 0 0 - - - - - - - 9.5 1016.6 0.0
03/05:00am W 5 7 - - - - - - - 9.5 1016.7 0.0
03/04:30am SW 5 5 - - - - - - - 8.9 1016.9 0.0
03/04:00am CALM 0 0 - - - - - - - 9.8 1017.2 0.0
03/03:30am CALM 0 0 - - - - - - - 10.3 1017.3 0.0
03/03:00am CALM 0 0 1 1.0 10 E 30 Partly cloudy Fine 9.8 1017.6 0.0
03/02:30am SW 2 3 - - - - - - - 9.4 1017.9 0.0
03/02:00am W 3 4 - - - - - - - 9.5 1018.3 0.0
03/01:30am NW 3 5 - - - - - - - 9.8 1018.7 0.0
03/01:00am NNE 7 8 - - - - - - - 10.0 1019.0 0.0
03/12:30am N 7 8 - - - - - - - 9.4 1019.4 0.0
03/12:00am N 9 9 - - - - - - - 10.4 1019.7 0.0
 
Date/Time
EST
Wind Sea
Height
m
Swell Vis
km
Cloud Weather Temp
°C
Press
hPa
Rain since
9am
mm
Dir  Spd
kts
Gust
kts
Height
m
Period
s
Dir
02/11:30pm NNE 9 11 - - - - - - - 10.8 1020.0 0.0
02/11:00pm N 8 9 - - - - - - - 10.2 1020.4 0.0
02/10:30pm N 8 9 - - - - - - - 10.5 1020.6 0.0
02/10:00pm NNE 9 11 - - - - - - - 11.0 1020.7 0.0
02/09:30pm NNE 10 12 - - - - - - - 11.5 1021.0 0.0
02/09:00pm NNE 9 11 1 1.0 10 E 35 Partly cloudy Fine 11.2 1021.3 0.0
02/08:30pm NNE 11 13 - - - - - - - 11.8 1021.5 0.0
02/08:00pm NNE 11 14 - - - - - - - 12.0 1021.6 0.0
02/07:30pm NNE 12 14 - - - - - - - 12.6 1021.6 0.0
02/07:00pm NNE 11 13 - - - - - - - 12.6 1021.5 0.0
02/06:30pm NNE 11 13 - - - - - - - 12.6 1021.5 0.0
02/06:00pm NNE 11 12 - - - - - - - 12.8 1021.6 0.0
02/05:30pm NNE 11 13 - - - - - - - 13.5 1021.5 0.0
02/05:00pm NNE 12 14 - - - - - - - 14.2 1021.5 0.0
02/04:30pm NE 11 12 - - - - - - - 14.5 1021.7 0.0
02/04:00pm NE 10 12 - - - - - - - 14.6 1021.8 0.0
02/03:30pm NE 11 13 - - - - - - - 14.8 1021.7 0.0
02/03:00pm NE 13 14 1 1.0 10 E 40 Mostly clear Fine 14.9 1021.8 0.0
02/02:30pm NE 11 13 - - - - - - - 15.0 1022.0 0.0
02/02:00pm ENE 10 11 - - - - - - - 15.3 1022.1 0.0
02/01:30pm ENE 9 10 - - - - - - - 15.6 1022.3 0.0
02/01:00pm ENE 5 7 - - - - - - - 15.8 1022.5 0.0
02/12:30pm E 3 4 - - - - - - - 15.7 1022.9 0.0
02/12:00pm E 3 4 - - - - - - - 15.4 1023.4 0.0
02/11:30am SSW 3 4 - - - - - - - 14.4 1023.8 0.0
02/11:00am ESE 3 5 - - - - - - - 14.3 1024.2 0.0
02/10:30am NNE 4 6 - - - - - - - 14.5 1024.3 0.0
02/10:00am NNE 7 10 - - - - - - - 14.5 1024.4 0.0
02/09:30am NW 8 9 - - - - - - - 14.5 1024.4 0.0
02/09:00am WNW 7 9 1 1.0 10 E 35 Clear Fine 12.4 1024.4 0.0
02/08:30am WNW 7 8 - - - - - - - 11.4 1024.4 0.0
02/08:00am NNW 3 4 - - - - - - - 10.8 1024.2 0.0
02/07:30am WNW 7 8 - - - - - - - 9.3 1024.0 0.0
02/07:00am CALM 0 3 - - - - - - - 9.5 1023.8 0.0
02/06:30am NNW 3 4 - - - - - - - 8.8 1023.6 0.0
02/06:00am NNW 6 8 - - - - - - - 8.6 1023.4 0.0
02/05:30am WNW 6 8 - - - - - - - 8.5 1023.0 0.0
02/05:00am NW 7 8 - - - - - - - 9.5 1022.9 0.0
02/04:30am NW 8 9 - - - - - - - 10.2 1022.6 0.0
02/04:00am WNW 6 9 - - - - - - - 9.4 1022.5 0.0
02/03:30am NW 9 10 - - - - - - - 10.2 1022.4 0.0
02/03:00am WNW 9 9 1 0.6 10 SE 30 Clear Fine 8.1 1022.6 0.0
02/02:30am NW 6 8 - - - - - - - 8.6 1022.7 0.0
02/02:00am NNW 3 5 - - - - - - - 7.9 1022.8 0.0
02/01:30am WNW 5 6 - - - - - - - 8.1 1022.9 0.0
02/01:00am W 5 7 - - - - - - - 8.3 1023.0 0.0
02/12:30am W 5 7 - - - - - - - 8.6 1023.2 0.0
02/12:00am W 4 5 - - - - - - - 8.6 1023.3 0.0
 
Date/Time
EST
Wind Sea
Height
m
Swell Vis
km
Cloud Weather Temp
°C
Press
hPa
Rain since
9am
mm
Dir  Spd
kts
Gust
kts
Height
m
Period
s
Dir
01/11:30pm WNW 6 6 - - - - - - - 8.2 1023.3 0.0
01/11:00pm CALM 0 0 - - - - - - - 8.1 1023.2 0.0
01/10:30pm CALM 0 0 - - - - - - - 8.6 1023.1 0.0
01/10:00pm CALM 0 0 - - - - - - - 9.1 1023.2 0.0
01/09:30pm CALM 0 0 - - - - - - - 9.5 1023.3 0.0
01/09:00pm N 1 3 1 0.6 10 SE 30 Clear Fine 8.9 1023.3 0.0
01/08:30pm NNE 7 8 - - - - - - - 9.0 1023.3 0.0
01/08:00pm NNE 7 8 - - - - - - - 10.2 1023.2 0.0
01/07:30pm NNE 7 8 - - - - - - - 9.7 1023.3 0.0
01/07:00pm NNE 7 8 - - - - - - - 10.8 1023.1 0.0
01/06:30pm NE 8 9 - - - - - - - 11.6 1023.0 0.0
01/06:00pm NE 8 10 - - - - - - - 12.0 1022.8 0.0
01/05:30pm NE 9 10 - - - - - - - 12.4 1022.6 0.0
01/05:00pm NE 9 9 - - - - - - - 12.7 1022.5 0.0
01/04:30pm NNE 9 10 - - - - - - - 13.0 1022.5 0.0

Other formats

Comma delimited format used in spreadsheet applications
http://www.bom.gov.au/fwo/IDN60701/IDN60701.94933.axf

JavaScript Object Notation format (JSON) in row-major order
http://www.bom.gov.au/fwo/IDN60701/IDN60701.94933.json

Data quality

Most of these data are generated automatically and are frequently updated. Quality checks on data are not normally performed. It is possible for incorrect values to appear. Refer to information at About Latest Weather Observations and please check the disclaimer before using these data.